Rechercher aéroport 
image banner adimage banner adimage banner ad
image banner ad

10CN - St Helena Hospital

Situé à St Helena, United States

ICAO - 10CN, IATA -

Données fournies par Airmate  

Information générale

Coordonnées: N38°32'36" W122°28'30"
Élévation : 581 feet MSL.
 
Voir autres Aéroports à California

Données opérationnelles

Special qualification required
Heure actuelle UTC:
Heure actuelle locale:
METAR: KSTS 231453Z VRB04KT 1/4SM FG VV002 11/11 A2998 RMK AO2 SLP145 T01060106 53010
TAF: KSTS 231135Z 2312/2412 VRB03KT 1/2SM FG VV002 TEMPO 2315/2317 1SM BR BKN005 FM231700 VRB03KT P6SM FEW010 FM232100 27010KT P6SM SKC FM240200 16005KT P6SM SKC
Voir NOTAMs / SUP AIP / TFR affectant cet aéroport [VIEW]
Fréquences de communication: [VIEW]

Pistes:

Coordonnées de l'aéroport

Adresse: St Helena United States

Vue satellite de 10CN